BBC Livorno — V2QJ2 — position and weather

sailwx.info

Track history (hours):
 
Tides and Currents Weather Stations Pressure Air Temp Water Temp Dewpoint Dewpoint Depression Visibility Wind Speed Wind Dir Waves Ship Positions

BBC Livorno

Last reported at 2018-Feb-15 22:27 UTC. Time now 2018-Feb-22 16:32 UTC.
Position N 37°44' E 024°18'.

Length 130 m; draft 5.9 m.

Type: Cargo ship. MMSI: 305775000.

Date/timePositionNaut miles runAvg speedWind from/ knotsBaromVisibWave heightAir tempDewpointWater temp
2018-Feb-15 22:27N 37°44' E 024°18'25 7.2
2018-Feb-15 18:59N 37°34' E 023°49'5 8.2
2018-Feb-15 18:23N 37°36' E 023°44'4 9.4
2018-Feb-15 18:00N 37°39' E 023°42'5 9.8
2018-Feb-15 17:30N 37°44' E 023°40'5 9.9
2018-Feb-15 17:00N 37°48' E 023°37'5 9.3
2018-Feb-15 16:30N 37°52' E 023°34'2 4.5
2018-Feb-15 16:01N 37°54' E 023°33'0 0.1
2018-Feb-15 15:29N 37°54' E 023°33'0 0.2
2018-Feb-15 14:59N 37°54' E 023°33'0 0.1
2018-Feb-15 14:29N 37°54' E 023°33'0 0.2
2018-Feb-15 13:59N 37°54' E 023°33'0 0.1
2018-Feb-15 13:29N 37°54' E 023°33'0 0.1
2018-Feb-15 12:59N 37°54' E 023°33'0 0.1
2018-Feb-15 12:29N 37°54' E 023°33'0 0.1
2018-Feb-15 11:59N 37°54' E 023°33'0 0.0
2018-Feb-15 11:29N 37°54' E 023°33'0 0.0
2018-Feb-15 10:59N 37°54' E 023°33'0 0.0
2018-Feb-15 10:29N 37°54' E 023°33'0 0.1
2018-Feb-15 09:59N 37°54' E 023°33'0 0.1
2018-Feb-15 09:29N 37°54' E 023°33'0 0.2
2018-Feb-15 08:59N 37°54' E 023°33'0 0.2
2018-Feb-15 08:23N 37°54' E 023°32'0 0.1
2018-Feb-15 07:59N 37°54' E 023°32'0 0.1
2018-Feb-15 07:29N 37°54' E 023°33'0 0.0
2018-Feb-15 06:59N 37°54' E 023°33'0 0.1
2018-Feb-15 06:20N 37°54' E 023°33'0 1.5
2018-Feb-15 06:00N 37°54' E 023°33'3 6.4
2018-Feb-15 05:31N 37°52' E 023°36'4 7.6
2018-Feb-15 05:00N 37°49' E 023°40'4 8.1
2018-Feb-15 04:31N 37°46' E 023°42'4 8.2
2018-Feb-15 03:58N 37°42' E 023°45'4 8.1
2018-Feb-15 03:28N 37°38' E 023°46'4 8.0
2018-Feb-15 03:01N 37°35' E 023°48'4 7.9
2018-Feb-15 02:30N 37°31' E 023°49'16 8.8
2018-Feb-15 00:40N 37°15' E 023°43'428 8.8
2018-Feb-12 23:48N 36°23' E 014°52'410.9
2018-Feb-12 23:24N 36°23' E 014°47'510.6
2018-Feb-12 22:58N 36°24' E 014°41'510.7
2018-Feb-12 22:29N 36°24' E 014°35'510.7
2018-Feb-12 21:58N 36°28' E 014°29'510.7
2018-Feb-12 21:29N 36°31' E 014°25'  
Track history (hours):
 
Tides and Currents Weather Stations Pressure Air Temp Water Temp Dewpoint Dewpoint Depression Visibility Wind Speed Wind Dir Waves Ship Positions

BBC Livorno

Last reported at 2018-Feb-15 22:27 UTC. Time now 2018-Feb-22 16:32 UTC.
Position N 37°44' E 024°18'.

Length 130 m; draft 5.9 m.

Type: Cargo ship. MMSI: 305775000.

Date/timePositionNaut miles runAvg speedWind from/ knotsBaromVisibWave heightAir tempDewpointWater temp
2018-Feb-15 22:27N 37°44' E 024°18'25 7.2
2018-Feb-15 18:59N 37°34' E 023°49'5 8.2
2018-Feb-15 18:23N 37°36' E 023°44'4 9.4
2018-Feb-15 18:00N 37°39' E 023°42'5 9.8
2018-Feb-15 17:30N 37°44' E 023°40'5 9.9
2018-Feb-15 17:00N 37°48' E 023°37'5 9.3
2018-Feb-15 16:30N 37°52' E 023°34'2 4.5
2018-Feb-15 16:01N 37°54' E 023°33'0 0.1
2018-Feb-15 15:29N 37°54' E 023°33'0 0.2
2018-Feb-15 14:59N 37°54' E 023°33'0 0.1
2018-Feb-15 14:29N 37°54' E 023°33'0 0.2
2018-Feb-15 13:59N 37°54' E 023°33'0 0.1
2018-Feb-15 13:29N 37°54' E 023°33'0 0.1
2018-Feb-15 12:59N 37°54' E 023°33'0 0.1
2018-Feb-15 12:29N 37°54' E 023°33'0 0.1
2018-Feb-15 11:59N 37°54' E 023°33'0 0.0
2018-Feb-15 11:29N 37°54' E 023°33'0 0.0
2018-Feb-15 10:59N 37°54' E 023°33'0 0.0
2018-Feb-15 10:29N 37°54' E 023°33'0 0.1
2018-Feb-15 09:59N 37°54' E 023°33'0 0.1
2018-Feb-15 09:29N 37°54' E 023°33'0 0.2
2018-Feb-15 08:59N 37°54' E 023°33'0 0.2
2018-Feb-15 08:23N 37°54' E 023°32'0 0.1
2018-Feb-15 07:59N 37°54' E 023°32'0 0.1
2018-Feb-15 07:29N 37°54' E 023°33'0 0.0
2018-Feb-15 06:59N 37°54' E 023°33'0 0.1
2018-Feb-15 06:20N 37°54' E 023°33'0 1.5
2018-Feb-15 06:00N 37°54' E 023°33'3 6.4
2018-Feb-15 05:31N 37°52' E 023°36'4 7.6
2018-Feb-15 05:00N 37°49' E 023°40'4 8.1
2018-Feb-15 04:31N 37°46' E 023°42'4 8.2
2018-Feb-15 03:58N 37°42' E 023°45'4 8.1
2018-Feb-15 03:28N 37°38' E 023°46'4 8.0
2018-Feb-15 03:01N 37°35' E 023°48'4 7.9
2018-Feb-15 02:30N 37°31' E 023°49'16 8.8
2018-Feb-15 00:40N 37°15' E 023°43'428 8.8
2018-Feb-12 23:48N 36°23' E 014°52'410.9
2018-Feb-12 23:24N 36°23' E 014°47'510.6
2018-Feb-12 22:58N 36°24' E 014°41'510.7
2018-Feb-12 22:29N 36°24' E 014°35'510.7
2018-Feb-12 21:58N 36°28' E 014°29'510.7
2018-Feb-12 21:29N 36°31' E 014°25'  

Dump ship's entire track history